Time;durP1;ratioP1;P1;durP2;ratioP2;P2;SDS_P1;SDS_P2;PMS_P1;PMS_P2;Temp;Humidity;BMP_temperature;BMP_pressure;BME280_temperature;BME280_humidity;BME280_pressure;Samples;Min_cycle;Max_cycle;Signal;HPM_P1;HPM_P2
2023/01/31 00:00:56;;;;;;;23.45;4.15;;;3.90;99.90;;;;;;5056487;28;20044;-91
2023/01/31 00:03:22;;;;;;;31.10;4.22;;;3.90;99.90;;;;;;5038708;28;20141;-90
2023/01/31 00:05:47;;;;;;;27.95;4.05;;;3.80;99.90;;;;;;5042250;28;20051;-91
2023/01/31 00:08:14;;;;;;;20.95;3.92;;;3.80;99.90;;;;;;5041363;28;20040;-91
2023/01/31 00:10:40;;;;;;;27.88;4.35;;;3.80;99.90;;;;;;5047044;28;20038;-91
2023/01/31 00:13:06;;;;;;;22.80;4.13;;;3.80;99.90;;;;;;5044891;28;20483;-91
2023/01/31 00:15:33;;;;;;;22.38;3.85;;;3.80;99.90;;;;;;5057625;28;20058;-91
2023/01/31 00:17:59;;;;;;;17.92;3.80;;;3.90;99.90;;;;;;5042642;28;20052;-91
2023/01/31 00:20:25;;;;;;;22.38;4.20;;;3.80;99.90;;;;;;5045338;28;20044;-90
2023/01/31 00:22:50;;;;;;;21.50;3.67;;;3.90;99.90;;;;;;5057829;28;20504;-91
2023/01/31 00:25:16;;;;;;;21.80;4.07;;;3.70;99.90;;;;;;5044694;28;20414;-91
2023/01/31 00:27:42;;;;;;;21.42;4.32;;;3.80;99.90;;;;;;5045005;28;20475;-91
2023/01/31 00:30:09;;;;;;;19.75;3.88;;;3.70;99.90;;;;;;5046235;28;20298;-91
2023/01/31 00:32:35;;;;;;;21.58;3.35;;;3.60;99.90;;;;;;5044495;28;20484;-91
2023/01/31 00:35:00;;;;;;;20.02;3.60;;;3.70;99.90;;;;;;5036737;28;20058;-91
2023/01/31 00:37:26;;;;;;;21.20;3.33;;;3.60;99.90;;;;;;5056425;28;20043;-90
2023/01/31 00:39:51;;;;;;;19.08;3.42;;;3.60;99.90;;;;;;5044880;28;20038;-91
2023/01/31 00:42:17;;;;;;;16.02;3.50;;;3.60;99.90;;;;;;5044232;28;20037;-91
2023/01/31 00:44:43;;;;;;;25.65;4.18;;;3.60;99.90;;;;;;5041935;28;20216;-91
2023/01/31 00:47:08;;;;;;;21.58;3.67;;;3.70;99.90;;;;;;5059386;28;20040;-91
2023/01/31 00:49:34;;;;;;;24.35;3.72;;;3.60;99.90;;;;;;5043084;28;20543;-91
2023/01/31 00:52:00;;;;;;;15.35;3.20;;;3.70;99.90;;;;;;5043684;28;20050;-91
2023/01/31 00:54:25;;;;;;;22.20;3.60;;;3.60;99.90;;;;;;5044069;28;20127;-91
2023/01/31 00:56:51;;;;;;;18.00;3.10;;;3.60;99.90;;;;;;5041040;28;20032;-91
2023/01/31 00:59:20;;;;;;;14.20;2.92;;;3.70;99.90;;;;;;5041534;28;20127;-91
2023/01/31 01:01:46;;;;;;;18.48;3.75;;;3.60;99.90;;;;;;5046534;28;20490;-91
2023/01/31 01:04:11;;;;;;;21.23;3.90;;;3.60;99.90;;;;;;5058654;28;20059;-91
2023/01/31 01:06:40;;;;;;;19.88;4.13;;;3.70;99.90;;;;;;5058254;28;20203;-91
2023/01/31 01:09:06;;;;;;;18.25;3.92;;;3.70;99.90;;;;;;5039602;28;20337;-91
2023/01/31 01:11:33;;;;;;;16.27;4.43;;;3.50;99.90;;;;;;5057754;28;20116;-91
2023/01/31 01:14:00;;;;;;;16.67;3.20;;;3.60;99.90;;;;;;5042458;28;20055;-91
2023/01/31 01:16:36;;;;;;;20.52;2.97;;;3.60;99.90;;;;;;5042196;28;20079;-91
2023/01/31 01:19:07;;;;;;;23.20;3.85;;;3.70;99.90;;;;;;5060345;28;20062;-91
2023/01/31 01:21:38;;;;;;;18.13;3.55;;;3.60;99.90;;;;;;5056823;28;20043;-91
2023/01/31 01:24:05;;;;;;;22.25;3.08;;;3.60;99.90;;;;;;5041767;28;20147;-91
2023/01/31 01:26:32;;;;;;;24.27;3.47;;;3.70;99.90;;;;;;5060617;28;20060;-91
2023/01/31 01:29:00;;;;;;;25.20;4.00;;;3.60;99.90;;;;;;5042218;28;20612;-92
2023/01/31 01:31:30;;;;;;;21.60;4.18;;;3.60;99.90;;;;;;5042170;28;20036;-91
2023/01/31 01:34:02;;;;;;;18.45;3.80;;;3.50;99.90;;;;;;5044598;28;20033;-91
2023/01/31 01:36:28;;;;;;;16.95;2.90;;;3.50;99.90;;;;;;5058656;28;20184;-91
2023/01/31 01:38:54;;;;;;;17.65;3.08;;;3.50;99.90;;;;;;5048587;28;20090;-91
2023/01/31 01:41:21;;;;;;;17.35;2.97;;;3.50;99.90;;;;;;5055999;28;20051;-91
2023/01/31 01:43:52;;;;;;;19.25;3.10;;;3.60;99.90;;;;;;5041902;28;20043;-91
2023/01/31 01:46:21;;;;;;;18.67;3.35;;;3.50;99.90;;;;;;5043145;28;20028;-91
2023/01/31 01:48:50;;;;;;;18.38;3.13;;;3.60;99.90;;;;;;5040871;28;20073;-91
2023/01/31 01:51:18;;;;;;;17.17;3.30;;;3.60;99.90;;;;;;5057105;28;20097;-90
2023/01/31 01:53:47;;;;;;;17.23;2.83;;;3.60;99.90;;;;;;5038374;28;20050;-91
2023/01/31 01:56:18;;;;;;;19.25;3.63;;;3.60;99.90;;;;;;5056015;28;20062;-91
2023/01/31 01:58:53;;;;;;;13.68;3.10;;;3.70;99.90;;;;;;5038558;28;20101;-91
2023/01/31 02:01:19;;;;;;;25.38;4.28;;;3.70;99.90;;;;;;5042053;28;20028;-91
2023/01/31 02:03:50;;;;;;;22.30;3.53;;;3.70;99.90;;;;;;5041933;28;20110;-90
2023/01/31 02:06:16;;;;;;;23.35;3.15;;;3.80;99.90;;;;;;5041590;28;20032;-91
2023/01/31 02:08:42;;;;;;;25.92;3.13;;;3.80;99.90;;;;;;5039254;28;20028;-91
2023/01/31 02:11:22;;;;;;;15.35;2.75;;;3.90;99.90;;;;;;5039167;28;20630;-91
2023/01/31 02:13:53;;;;;;;23.55;3.45;;;3.90;99.90;;;;;;5074212;28;20082;-91
2023/01/31 02:16:19;;;;;;;18.13;3.10;;;3.90;99.90;;;;;;5041360;28;20163;-90
2023/01/31 02:18:46;;;;;;;14.75;3.03;;;4.00;99.90;;;;;;5044837;28;20075;-91
2023/01/31 02:21:43;;;;;;;12.77;3.20;;;4.00;99.90;;;;;;5041739;28;20044;-91
2023/01/31 02:24:39;;;;;;;15.80;3.15;;;4.00;99.90;;;;;;5073351;28;20059;-91
2023/01/31 02:27:17;;;;;;;14.25;2.47;;;3.90;99.90;;;;;;5038526;28;20064;-91
2023/01/31 02:29:51;;;;;;;20.42;3.42;;;3.90;99.90;;;;;;5040551;28;20173;-91
2023/01/31 02:32:38;;;;;;;17.13;3.13;;;3.80;99.90;;;;;;5055404;28;20532;-91
2023/01/31 02:35:04;;;;;;;19.55;2.90;;;3.90;99.90;;;;;;5057650;28;20070;-91
2023/01/31 02:37:54;;;;;;;18.23;3.38;;;3.80;99.90;;;;;;5037865;28;20435;-91
2023/01/31 02:40:44;;;;;;;14.18;2.53;;;3.80;99.90;;;;;;5055434;28;20040;-90
2023/01/31 02:43:12;;;;;;;19.05;2.95;;;3.80;99.90;;;;;;5058830;28;20044;-91
2023/01/31 02:46:03;;;;;;;19.15;3.17;;;3.70;99.90;;;;;;5039098;28;20032;-91
2023/01/31 02:48:45;;;;;;;13.05;2.85;;;3.70;99.90;;;;;;5058462;28;20036;-91
2023/01/31 02:51:23;;;;;;;16.58;3.25;;;3.70;99.90;;;;;;5038415;28;20067;-91
2023/01/31 02:54:14;;;;;;;14.85;3.03;;;3.80;99.90;;;;;;5041631;28;20189;-91
2023/01/31 02:56:43;;;;;;;9.73;2.60;;;3.70;99.90;;;;;;5041589;28;20219;-91
2023/01/31 02:59:24;;;;;;;17.85;2.92;;;3.80;99.90;;;;;;5043000;28;20047;-91
2023/01/31 03:01:57;;;;;;;15.82;3.78;;;3.70;99.90;;;;;;5041217;28;20036;-90
2023/01/31 03:04:23;;;;;;;19.65;4.72;;;3.70;99.90;;;;;;5044157;28;20035;-91
2023/01/31 03:07:00;;;;;;;20.30;3.72;;;3.70;99.90;;;;;;5040273;28;20318;-91
2023/01/31 03:09:45;;;;;;;14.45;2.50;;;3.70;99.90;;;;;;5055889;28;20138;-91
2023/01/31 03:12:17;;;;;;;15.52;2.80;;;3.60;99.90;;;;;;5056913;28;20029;-90
2023/01/31 03:14:58;;;;;;;11.73;2.63;;;3.70;99.90;;;;;;5057053;28;20056;-91
2023/01/31 03:17:43;;;;;;;15.23;3.30;;;3.70;99.90;;;;;;5044757;28;20048;-91
2023/01/31 03:20:22;;;;;;;16.08;3.20;;;3.80;99.90;;;;;;5060655;28;20398;-90
2023/01/31 03:22:57;;;;;;;17.20;3.20;;;3.80;99.90;;;;;;5046558;28;20539;-91
2023/01/31 03:25:26;;;;;;;14.82;2.92;;;3.80;99.90;;;;;;5059002;28;20054;-91
2023/01/31 03:27:58;;;;;;;18.52;3.25;;;3.90;99.90;;;;;;5043340;28;20036;-92
2023/01/31 03:30:40;;;;;;;12.50;3.00;;;3.90;99.90;;;;;;5064826;28;20440;-92
2023/01/31 03:33:29;;;;;;;15.27;3.28;;;3.90;99.90;;;;;;5045202;28;20039;-91
2023/01/31 03:36:04;;;;;;;15.18;2.97;;;4.00;99.90;;;;;;5049589;28;20208;-90
2023/01/31 03:39:06;;;;;;;14.63;2.33;;;4.00;99.90;;;;;;5045265;28;20036;-91
2023/01/31 03:41:44;;;;;;;14.88;2.80;;;4.10;99.90;;;;;;5059238;28;20048;-91
2023/01/31 03:44:31;;;;;;;20.48;3.42;;;4.10;99.90;;;;;;5062004;28;20032;-91
2023/01/31 03:47:05;;;;;;;19.30;2.97;;;4.20;99.90;;;;;;5061838;28;20059;-91
2023/01/31 03:49:33;;;;;;;18.48;3.13;;;4.20;99.90;;;;;;5063226;28;20032;-91
2023/01/31 03:52:07;;;;;;;17.92;3.15;;;4.20;99.90;;;;;;5058449;28;20040;-91
2023/01/31 03:54:42;;;;;;;13.23;2.80;;;4.30;99.90;;;;;;5042704;28;20119;-90
2023/01/31 03:57:27;;;;;;;17.27;3.00;;;4.30;99.90;;;;;;5059180;28;20040;-91
2023/01/31 03:59:56;;;;;;;13.90;2.88;;;4.40;99.90;;;;;;5060471;28;20035;-91
2023/01/31 04:02:26;;;;;;;17.73;3.03;;;4.50;99.90;;;;;;5058369;28;20127;-91
2023/01/31 04:05:12;;;;;;;20.30;3.17;;;4.50;99.90;;;;;;5059334;28;20142;-91
2023/01/31 04:07:40;;;;;;;17.70;3.45;;;4.70;99.90;;;;;;5039575;28;20323;-91
2023/01/31 04:10:12;;;;;;;19.95;2.70;;;4.60;99.90;;;;;;5042147;28;20067;-91
2023/01/31 04:12:38;;;;;;;16.33;3.00;;;4.70;99.90;;;;;;5046891;28;20047;-91
2023/01/31 04:15:05;;;;;;;18.95;4.50;;;4.80;99.90;;;;;;5061403;28;20060;-91
2023/01/31 04:17:32;;;;;;;15.98;3.72;;;4.80;99.90;;;;;;5042903;28;20566;-91
2023/01/31 04:19:58;;;;;;;14.75;3.70;;;4.90;99.90;;;;;;5048422;28;20443;-91
2023/01/31 04:22:24;;;;;;;19.50;3.17;;;5.00;99.90;;;;;;5044607;28;20518;-91
2023/01/31 04:24:49;;;;;;;16.48;3.20;;;5.00;99.90;;;;;;5043756;28;20036;-91
2023/01/31 04:27:18;;;;;;;22.58;3.88;;;5.20;99.90;;;;;;5042461;28;20030;-90
2023/01/31 04:29:43;;;;;;;25.52;3.88;;;5.20;99.90;;;;;;5062016;28;20043;-91
2023/01/31 04:32:09;;;;;;;23.75;3.67;;;5.20;99.90;;;;;;5046517;28;20039;-91
2023/01/31 04:34:35;;;;;;;13.98;3.75;;;5.20;99.90;;;;;;5059809;28;20097;-91
2023/01/31 04:37:00;;;;;;;18.75;4.25;;;5.30;99.90;;;;;;5058301;28;20044;-91
2023/01/31 04:39:26;;;;;;;16.08;3.25;;;5.30;99.90;;;;;;5043187;28;20085;-91
2023/01/31 04:41:52;;;;;;;18.73;4.10;;;5.30;99.90;;;;;;5041958;28;20051;-91
2023/01/31 04:44:18;;;;;;;33.53;4.80;;;5.30;99.90;;;;;;5044775;28;20094;-91
2023/01/31 04:46:46;;;;;;;22.65;4.13;;;5.50;99.90;;;;;;5064617;28;20028;-91
2023/01/31 04:49:13;;;;;;;18.50;4.07;;;5.40;99.90;;;;;;5043943;28;20063;-91
2023/01/31 04:51:39;;;;;;;20.30;3.78;;;5.50;99.90;;;;;;5044898;28;20634;-91
2023/01/31 04:54:05;;;;;;;22.33;3.83;;;5.50;99.90;;;;;;5043550;28;20048;-91
2023/01/31 04:56:33;;;;;;;18.55;4.18;;;5.60;99.90;;;;;;5046791;28;20044;-91
2023/01/31 04:58:59;;;;;;;28.60;5.63;;;5.50;99.90;;;;;;5060331;28;20081;-91
2023/01/31 05:01:30;;;;;;;22.55;4.50;;;5.60;99.90;;;;;;5044307;28;20036;-91
2023/01/31 05:03:56;;;;;;;21.17;4.13;;;5.50;99.90;;;;;;5044064;28;20371;-90
2023/01/31 05:06:22;;;;;;;21.85;4.43;;;5.50;99.90;;;;;;5059249;28;20036;-91
2023/01/31 05:08:48;;;;;;;24.92;4.93;;;5.50;99.90;;;;;;5039188;28;20255;-91
2023/01/31 05:11:13;;;;;;;29.30;5.18;;;5.60;99.90;;;;;;5045621;28;20770;-91
2023/01/31 05:13:41;;;;;;;18.25;4.60;;;5.60;99.90;;;;;;5042612;28;20040;-91
2023/01/31 05:16:09;;;;;;;23.48;4.63;;;5.60;99.90;;;;;;5058277;28;20064;-91
2023/01/31 05:18:36;;;;;;;19.50;4.40;;;5.60;99.90;;;;;;5042686;28;20131;-91
2023/01/31 05:21:03;;;;;;;23.05;4.47;;;5.60;99.90;;;;;;5062576;28;20032;-91
2023/01/31 05:23:30;;;;;;;22.55;4.25;;;5.70;99.90;;;;;;5041116;28;20719;-91
2023/01/31 05:25:58;;;;;;;16.77;3.88;;;5.60;99.90;;;;;;5060725;28;20044;-91
2023/01/31 05:28:25;;;;;;;23.73;4.38;;;5.70;99.90;;;;;;5044019;28;20521;-91
2023/01/31 05:31:04;;;;;;;20.45;5.07;;;5.70;99.90;;;;;;5058625;28;20036;-91
2023/01/31 05:33:33;;;;;;;22.67;3.92;;;5.50;99.90;;;;;;5058598;28;20084;-92
2023/01/31 05:35:59;;;;;;;28.05;5.63;;;5.60;99.90;;;;;;5062872;28;20166;-91
2023/01/31 05:38:25;;;;;;;27.75;5.28;;;5.70;99.90;;;;;;5041127;28;20201;-91
2023/01/31 05:40:51;;;;;;;20.77;4.55;;;5.60;99.90;;;;;;5043092;28;20036;-91
2023/01/31 05:43:19;;;;;;;17.98;4.43;;;5.60;99.90;;;;;;5041762;28;20040;-91
2023/01/31 05:45:48;;;;;;;22.25;4.60;;;5.70;99.90;;;;;;5060600;28;20044;-91
2023/01/31 05:48:13;;;;;;;24.88;4.20;;;5.70;99.90;;;;;;5061078;28;20473;-91
2023/01/31 05:50:39;;;;;;;23.60;4.28;;;5.70;99.90;;;;;;5059147;28;20039;-91
2023/01/31 05:53:04;;;;;;;30.40;5.80;;;5.70;99.90;;;;;;5038471;28;20037;-91
2023/01/31 05:55:30;;;;;;;23.73;4.88;;;5.70;99.90;;;;;;5042343;28;20036;-91
2023/01/31 05:57:56;;;;;;;23.00;4.65;;;5.70;99.90;;;;;;5041992;28;20522;-91
2023/01/31 06:00:23;;;;;;;24.08;5.70;;;5.80;99.90;;;;;;5045087;28;20056;-90
2023/01/31 06:02:49;;;;;;;20.00;4.47;;;5.80;99.90;;;;;;5054981;28;20110;-91
2023/01/31 06:05:15;;;;;;;24.63;5.50;;;5.80;99.90;;;;;;5042555;28;20036;-91
2023/01/31 06:07:41;;;;;;;29.08;5.85;;;5.90;99.90;;;;;;5040206;28;20044;-91
2023/01/31 06:10:09;;;;;;;23.08;5.10;;;5.90;99.90;;;;;;5039717;28;20355;-90
2023/01/31 06:12:35;;;;;;;23.58;5.50;;;5.90;99.90;;;;;;5056484;28;20285;-91
2023/01/31 06:15:01;;;;;;;27.92;5.45;;;5.90;99.90;;;;;;5041499;28;20066;-91
2023/01/31 06:17:26;;;;;;;20.08;5.32;;;6.00;99.90;;;;;;5042758;28;20047;-91
2023/01/31 06:19:52;;;;;;;26.27;5.32;;;5.90;99.90;;;;;;5041238;28;20044;-91
2023/01/31 06:22:18;;;;;;;21.95;5.38;;;5.90;99.90;;;;;;5039447;28;20093;-91
2023/01/31 06:24:44;;;;;;;23.80;4.93;;;5.90;99.90;;;;;;5056214;28;20024;-91
2023/01/31 06:27:10;;;;;;;34.38;5.45;;;5.90;99.90;;;;;;5046119;28;20541;-91
2023/01/31 06:29:36;;;;;;;31.08;5.65;;;5.90;99.90;;;;;;5040735;28;20514;-91
2023/01/31 06:32:01;;;;;;;18.77;4.72;;;5.90;99.90;;;;;;5041526;28;20040;-92
2023/01/31 06:34:27;;;;;;;31.17;5.53;;;5.90;99.90;;;;;;5041742;28;20143;-91
2023/01/31 06:36:53;;;;;;;27.05;6.68;;;5.90;99.90;;;;;;5039484;28;20506;-91
2023/01/31 06:39:21;;;;;;;26.10;5.50;;;5.90;99.90;;;;;;5045389;28;20101;-91
2023/01/31 06:41:47;;;;;;;23.63;5.40;;;6.00;99.90;;;;;;5040133;28;20047;-91
2023/01/31 06:44:12;;;;;;;21.27;5.35;;;6.00;99.90;;;;;;5044062;28;20052;-91
2023/01/31 06:46:38;;;;;;;17.52;5.25;;;6.00;99.90;;;;;;5039380;28;20519;-91
2023/01/31 06:49:04;;;;;;;23.67;4.93;;;6.10;99.90;;;;;;5037646;28;20138;-91
2023/01/31 06:51:30;;;;;;;22.13;5.80;;;6.00;99.90;;;;;;5043964;28;20040;-91
2023/01/31 06:53:56;;;;;;;26.70;4.80;;;6.00;99.90;;;;;;5067004;28;20170;-91
2023/01/31 06:56:22;;;;;;;24.88;4.95;;;6.10;99.90;;;;;;5048936;28;20071;-91
2023/01/31 06:58:48;;;;;;;23.88;5.57;;;6.00;99.90;;;;;;5044850;28;20420;-91
2023/01/31 07:01:14;;;;;;;27.40;4.93;;;6.10;99.90;;;;;;5048506;28;20095;-91
2023/01/31 07:03:40;;;;;;;24.02;4.95;;;6.10;99.90;;;;;;5046517;28;20032;-91
2023/01/31 07:06:08;;;;;;;16.50;4.15;;;6.00;99.90;;;;;;5046928;28;20088;-91
2023/01/31 07:08:34;;;;;;;22.33;5.25;;;6.10;99.90;;;;;;5044640;28;20047;-91
2023/01/31 07:11:01;;;;;;;21.25;5.45;;;6.00;99.90;;;;;;5063484;28;20123;-91
2023/01/31 07:13:27;;;;;;;19.25;4.78;;;6.00;99.90;;;;;;5061184;28;20119;-91
2023/01/31 07:15:53;;;;;;;19.50;4.50;;;6.00;99.90;;;;;;5049822;28;20529;-91
2023/01/31 07:18:19;;;;;;;19.10;4.63;;;6.00;99.90;;;;;;5065910;28;20489;-91
2023/01/31 07:20:45;;;;;;;19.58;4.25;;;6.10;99.90;;;;;;5049057;28;20035;-91
2023/01/31 07:23:11;;;;;;;29.80;4.80;;;6.10;99.90;;;;;;5058791;28;20188;-91
2023/01/31 07:25:37;;;;;;;17.08;3.97;;;6.10;99.90;;;;;;5059173;28;20139;-90
2023/01/31 07:28:05;;;;;;;19.92;4.20;;;6.10;99.90;;;;;;5060461;28;20046;-91
2023/01/31 07:30:31;;;;;;;17.70;4.93;;;6.10;99.90;;;;;;5052586;28;20036;-91
2023/01/31 07:32:57;;;;;;;19.08;4.10;;;6.20;99.90;;;;;;5044553;28;20499;-90
2023/01/31 07:35:23;;;;;;;20.83;4.28;;;6.10;99.90;;;;;;5049035;28;20090;-91
2023/01/31 07:37:51;;;;;;;18.88;3.88;;;6.20;99.90;;;;;;5058140;28;20043;-91
2023/01/31 07:40:16;;;;;;;16.98;4.05;;;6.20;99.90;;;;;;5044250;28;20073;-91
2023/01/31 07:42:43;;;;;;;21.80;4.82;;;6.20;99.90;;;;;;5043455;28;20096;-91
2023/01/31 07:45:13;;;;;;;14.88;3.63;;;6.20;99.90;;;;;;5042949;28;20037;-91
2023/01/31 07:47:39;;;;;;;20.70;4.35;;;6.20;99.90;;;;;;5043284;28;20320;-91
2023/01/31 07:50:05;;;;;;;18.77;4.85;;;6.20;99.90;;;;;;5048447;28;20679;-91
2023/01/31 07:52:31;;;;;;;21.73;4.35;;;6.20;99.90;;;;;;5047851;28;20040;-91
2023/01/31 07:54:57;;;;;;;21.15;3.80;;;6.20;99.90;;;;;;5047155;28;20422;-90
2023/01/31 07:57:23;;;;;;;14.35;4.03;;;6.20;99.90;;;;;;5043050;28;20040;-90
2023/01/31 07:59:49;;;;;;;23.50;4.05;;;6.20;99.90;;;;;;5049285;28;20222;-91
2023/01/31 08:05:01;;;;;;;15.52;3.72;;;6.20;99.90;;;;;;5064365;28;20067;-91
2023/01/31 08:07:28;;;;;;;17.92;4.35;;;6.30;99.90;;;;;;5047334;28;20040;-91
2023/01/31 08:09:54;;;;;;;16.55;4.35;;;6.30;99.90;;;;;;5060595;28;20039;-91
2023/01/31 08:12:19;;;;;;;14.00;3.63;;;6.30;99.90;;;;;;5045252;28;20035;-91
2023/01/31 08:14:46;;;;;;;16.45;4.55;;;6.30;99.90;;;;;;5043627;28;20048;-91
2023/01/31 08:17:12;;;;;;;17.70;3.42;;;6.40;99.90;;;;;;5052695;28;20412;-91
2023/01/31 08:19:37;;;;;;;14.07;3.40;;;6.40;99.90;;;;;;5041894;28;20040;-90
2023/01/31 08:22:04;;;;;;;19.88;3.22;;;6.40;99.90;;;;;;5042710;28;20040;-91
2023/01/31 08:24:31;;;;;;;20.92;4.15;;;6.40;99.90;;;;;;5050455;28;20041;-91
2023/01/31 08:26:57;;;;;;;16.90;3.78;;;6.40;99.90;;;;;;5034445;28;20499;-92
2023/01/31 08:29:23;;;;;;;12.48;3.28;;;6.40;99.90;;;;;;5040901;28;20127;-91
2023/01/31 08:31:49;;;;;;;20.63;3.53;;;6.50;99.90;;;;;;5043649;28;20093;-91
2023/01/31 08:34:15;;;;;;;18.80;3.25;;;6.50;99.90;;;;;;5041643;28;20041;-91
2023/01/31 08:36:42;;;;;;;13.07;3.05;;;6.50;99.90;;;;;;5041735;28;20570;-91
2023/01/31 08:39:08;;;;;;;14.93;3.22;;;6.50;99.90;;;;;;5033524;28;20036;-91
2023/01/31 08:41:36;;;;;;;14.35;3.15;;;6.50;99.90;;;;;;5045634;28;20633;-91
2023/01/31 08:44:03;;;;;;;12.45;3.08;;;6.60;99.90;;;;;;5042425;28;20043;-92
2023/01/31 08:46:34;;;;;;;14.27;4.07;;;6.60;99.90;;;;;;5038959;28;20277;-91
2023/01/31 08:49:01;;;;;;;12.93;3.78;;;6.60;99.90;;;;;;5054274;28;20044;-92
2023/01/31 08:51:27;;;;;;;18.38;3.63;;;6.60;99.90;;;;;;5038491;28;20036;-92
2023/01/31 08:53:54;;;;;;;16.92;3.00;;;6.70;99.90;;;;;;5034688;28;20040;-90
2023/01/31 08:56:24;;;;;;;13.45;3.88;;;6.70;99.90;;;;;;5041824;28;20122;-92
2023/01/31 08:58:50;;;;;;;11.48;3.05;;;6.70;99.90;;;;;;5040510;28;20039;-92
2023/01/31 09:01:18;;;;;;;17.77;3.58;;;6.80;99.90;;;;;;5040512;28;20150;-91
2023/01/31 09:03:44;;;;;;;13.13;3.33;;;6.80;99.90;;;;;;5052415;28;20080;-91
2023/01/31 09:06:14;;;;;;;16.38;4.82;;;6.70;99.90;;;;;;5043729;28;20032;-91
2023/01/31 09:08:40;;;;;;;11.93;3.47;;;6.70;99.90;;;;;;5039697;28;20382;-91
2023/01/31 09:11:05;;;;;;;14.50;2.88;;;6.80;99.90;;;;;;5043164;28;20036;-91
2023/01/31 09:13:33;;;;;;;16.48;3.40;;;6.80;99.90;;;;;;5039954;28;20395;-91
2023/01/31 09:16:00;;;;;;;11.07;2.95;;;6.90;99.90;;;;;;5044003;28;20523;-91
2023/01/31 09:18:26;;;;;;;18.58;3.95;;;6.80;99.90;;;;;;5038797;28;20037;-91
2023/01/31 09:20:52;;;;;;;15.63;3.35;;;6.90;99.90;;;;;;5044053;28;20044;-91
2023/01/31 09:23:19;;;;;;;15.98;3.50;;;6.80;99.90;;;;;;5038425;28;20531;-91
2023/01/31 09:25:54;;;;;;;22.25;3.92;;;6.80;99.90;;;;;;5036048;28;20059;-91
2023/01/31 09:28:23;;;;;;;14.30;3.03;;;6.90;99.90;;;;;;5049387;28;20029;-91
2023/01/31 09:30:51;;;;;;;15.43;3.25;;;6.80;99.90;;;;;;5041424;28;20044;-92
2023/01/31 09:33:18;;;;;;;12.68;3.47;;;6.90;99.90;;;;;;5039943;28;20075;-91
2023/01/31 09:35:54;;;;;;;15.73;3.20;;;6.90;99.90;;;;;;5053757;28;20063;-91
2023/01/31 09:38:20;;;;;;;20.23;3.33;;;6.90;99.90;;;;;;5037435;28;20048;-92
2023/01/31 09:40:48;;;;;;;13.48;3.40;;;6.90;99.90;;;;;;5042347;28;20044;-91
2023/01/31 09:43:15;;;;;;;17.38;3.42;;;7.00;99.90;;;;;;5051650;28;20045;-92
2023/01/31 09:45:43;;;;;;;15.68;3.40;;;6.90;99.90;;;;;;5047055;28;20077;-91
2023/01/31 09:48:17;;;;;;;18.60;3.90;;;7.00;99.90;;;;;;5053432;28;20071;-91
2023/01/31 09:50:48;;;;;;;13.05;2.90;;;7.00;99.90;;;;;;5041373;28;20399;-91
2023/01/31 09:53:20;;;;;;;15.57;3.47;;;6.90;99.90;;;;;;5046042;28;20135;-91
2023/01/31 09:55:59;;;;;;;17.95;3.25;;;6.90;99.90;;;;;;5037439;28;20112;-91
2023/01/31 09:58:57;;;;;;;22.48;4.05;;;6.90;99.90;;;;;;5055091;28;20036;-91
2023/01/31 10:01:43;;;;;;;16.77;3.65;;;6.80;99.90;;;;;;5039444;28;20040;-91
2023/01/31 10:04:46;;;;;;;16.98;3.70;;;6.90;99.90;;;;;;5051430;28;20059;-91
2023/01/31 10:07:20;;;;;;;18.08;3.60;;;6.90;99.90;;;;;;5034704;28;20230;-91
2023/01/31 10:10:00;;;;;;;16.00;3.40;;;7.00;99.90;;;;;;5032998;28;20112;-91
2023/01/31 10:12:38;;;;;;;23.65;3.35;;;7.00;99.90;;;;;;5047081;28;20045;-91
2023/01/31 10:15:17;;;;;;;13.55;3.35;;;7.00;99.90;;;;;;5058154;28;20487;-91
2023/01/31 10:17:49;;;;;;;12.45;3.38;;;7.10;99.90;;;;;;5043330;28;20561;-91
2023/01/31 10:20:25;;;;;;;22.60;5.10;;;7.20;99.90;;;;;;5061058;28;20051;-90
2023/01/31 10:23:06;;;;;;;16.35;3.80;;;7.20;99.90;;;;;;5057550;28;20507;-91
2023/01/31 10:25:41;;;;;;;15.63;3.67;;;7.20;99.90;;;;;;5064054;28;20039;-91
2023/01/31 10:28:26;;;;;;;20.02;4.45;;;7.20;99.90;;;;;;5046474;28;20255;-91
2023/01/31 10:31:04;;;;;;;18.30;3.33;;;7.20;99.90;;;;;;5046667;28;20050;-91
2023/01/31 10:33:58;;;;;;;16.63;3.28;;;7.30;99.90;;;;;;5063012;28;20040;-91
2023/01/31 10:36:58;;;;;;;20.92;4.50;;;7.20;99.90;;;;;;5064121;28;20035;-91
2023/01/31 10:39:44;;;;;;;12.05;3.45;;;7.20;99.90;;;;;;5046469;28;20059;-91
2023/01/31 10:42:19;;;;;;;15.27;3.95;;;7.30;99.90;;;;;;5060172;28;20024;-91
2023/01/31 10:44:52;;;;;;;12.23;3.78;;;7.20;99.90;;;;;;5064349;28;20036;-91
2023/01/31 10:47:20;;;;;;;15.15;3.78;;;7.10;99.90;;;;;;5047690;28;20036;-91
2023/01/31 10:49:48;;;;;;;17.40;3.85;;;7.20;99.90;;;;;;5043917;28;20206;-90
2023/01/31 10:53:01;;;;;;;16.33;4.03;;;7.30;99.90;;;;;;5060202;28;20036;-91
2023/01/31 10:55:49;;;;;;;12.18;3.28;;;7.30;99.90;;;;;;5014550;28;20146;-91
2023/01/31 10:58:21;;;;;;;12.27;3.47;;;7.20;99.90;;;;;;5067307;28;20048;-92
2023/01/31 11:00:48;;;;;;;12.07;3.85;;;7.30;99.90;;;;;;5046051;28;20043;-91
2023/01/31 11:03:14;;;;;;;15.60;3.97;;;7.30;99.90;;;;;;5047664;28;20127;-91
2023/01/31 11:05:57;;;;;;;15.85;4.18;;;7.30;99.90;;;;;;5051155;28;20103;-92
2023/01/31 11:08:44;;;;;;;19.23;4.30;;;7.30;99.90;;;;;;5060264;28;20032;-91
2023/01/31 11:11:16;;;;;;;14.30;3.67;;;7.50;99.90;;;;;;5049548;28;20036;-92
2023/01/31 11:13:57;;;;;;;19.02;4.03;;;7.50;99.90;;;;;;5046727;28;20073;-91
2023/01/31 11:16:25;;;;;;;13.75;3.10;;;7.50;99.90;;;;;;5066945;28;20060;-92
2023/01/31 11:18:52;;;;;;;14.13;3.47;;;7.60;99.90;;;;;;5049443;28;20062;-91
2023/01/31 11:21:30;;;;;;;18.42;4.30;;;7.50;99.90;;;;;;5051242;28;20462;-91
2023/01/31 11:24:15;;;;;;;15.88;3.60;;;7.50;99.90;;;;;;5048270;28;20040;-91
2023/01/31 11:26:49;;;;;;;13.20;3.30;;;7.60;99.90;;;;;;5066719;28;20040;-91
2023/01/31 11:29:28;;;;;;;20.30;3.80;;;7.60;99.90;;;;;;5061902;28;20087;-91
2023/01/31 11:31:55;;;;;;;15.25;3.83;;;7.50;99.90;;;;;;5051303;28;20490;-91
2023/01/31 11:34:29;;;;;;;16.40;3.35;;;7.60;99.90;;;;;;5063894;28;20087;-91
2023/01/31 11:37:15;;;;;;;17.47;3.50;;;7.50;99.90;;;;;;5047106;28;20036;-91
2023/01/31 11:39:41;;;;;;;13.70;3.50;;;7.60;99.90;;;;;;5044760;28;20063;-91
2023/01/31 11:42:15;;;;;;;18.80;3.22;;;7.60;99.90;;;;;;5050655;28;20040;-91
2023/01/31 11:44:59;;;;;;;17.80;2.87;;;7.60;99.90;;;;;;5051229;28;20048;-90
2023/01/31 11:47:42;;;;;;;11.80;3.40;;;7.60;99.90;;;;;;5047148;28;20304;-91
2023/01/31 11:50:53;;;;;;;15.35;4.25;;;7.60;99.90;;;;;;5048075;28;20036;-90
2023/01/31 11:53:25;;;;;;;17.77;4.05;;;7.60;99.90;;;;;;4955369;28;20104;-91
2023/01/31 11:55:54;;;;;;;16.80;3.88;;;7.70;99.90;;;;;;5034202;28;20051;-91
2023/01/31 11:58:30;;;;;;;16.88;4.32;;;7.70;99.90;;;;;;5064418;28;20115;-90
2023/01/31 12:01:00;;;;;;;17.15;4.53;;;7.80;99.90;;;;;;5065405;28;20367;-91
2023/01/31 12:03:27;;;;;;;13.95;3.38;;;7.80;99.90;;;;;;5063478;28;20036;-91
2023/01/31 12:06:03;;;;;;;23.05;4.00;;;7.90;99.90;;;;;;5052521;28;20035;-91
2023/01/31 12:08:32;;;;;;;20.83;4.40;;;7.90;99.90;;;;;;5044839;28;20028;-91
2023/01/31 12:10:59;;;;;;;17.17;4.28;;;8.00;99.90;;;;;;5051961;28;20036;-91
2023/01/31 12:13:27;;;;;;;18.02;3.50;;;8.00;99.90;;;;;;5063946;28;20071;-90
2023/01/31 12:15:58;;;;;;;11.55;3.35;;;8.00;99.90;;;;;;5049282;28;20084;-91
2023/01/31 12:18:48;;;;;;;19.77;4.40;;;8.00;99.90;;;;;;5061349;28;20048;-91
2023/01/31 12:22:09;;;;;;;14.35;3.75;;;8.10;99.90;;;;;;5048655;28;20128;-91
2023/01/31 12:24:56;;;;;;;21.70;3.75;;;8.10;99.90;;;;;;4967593;28;20133;-90
2023/01/31 12:27:50;;;;;;;11.88;2.90;;;8.10;99.90;;;;;;5047841;28;20036;-91
2023/01/31 12:30:43;;;;;;;16.05;3.33;;;8.20;99.90;;;;;;5046698;28;20048;-91
2023/01/31 12:33:34;;;;;;;14.80;3.22;;;8.20;99.90;;;;;;5046168;28;20040;-90
2023/01/31 12:36:25;;;;;;;14.95;3.78;;;8.30;99.90;;;;;;5063919;28;20048;-90
2023/01/31 12:39:24;;;;;;;19.08;3.70;;;8.30;99.90;;;;;;5049216;28;20044;-91
2023/01/31 12:42:10;;;;;;;14.55;3.30;;;8.40;99.90;;;;;;5061953;28;20028;-91
2023/01/31 12:44:47;;;;;;;20.45;4.50;;;8.40;99.90;;;;;;5049547;28;20040;-91
2023/01/31 12:47:38;;;;;;;16.80;3.70;;;8.40;99.90;;;;;;5060373;28;20039;-91
2023/01/31 12:50:21;;;;;;;20.35;3.42;;;8.50;99.90;;;;;;5059255;28;20067;-91
2023/01/31 12:53:16;;;;;;;15.10;3.72;;;8.60;99.90;;;;;;5061326;28;20409;-91
2023/01/31 12:56:10;;;;;;;11.50;3.03;;;8.60;99.90;;;;;;5042863;28;20040;-91
2023/01/31 12:59:10;;;;;;;18.67;3.42;;;8.70;99.90;;;;;;5065127;28;20059;-91
2023/01/31 13:01:48;;;;;;;13.20;3.05;;;8.80;99.90;;;;;;5062514;28;20036;-90
2023/01/31 13:04:48;;;;;;;12.68;3.10;;;8.70;99.90;;;;;;5062800;28;20475;-91
2023/01/31 13:07:31;;;;;;;18.85;3.50;;;8.70;99.90;;;;;;5041528;28;20036;-91
2023/01/31 13:10:00;;;;;;;13.35;3.17;;;8.70;99.90;;;;;;5043549;28;20323;-91
2023/01/31 13:12:30;;;;;;;22.10;3.35;;;8.60;99.90;;;;;;5060924;28;20120;-91
2023/01/31 13:15:13;;;;;;;11.93;3.15;;;8.60;99.90;;;;;;5051791;28;20228;-91